Frazee, Minnesota
Current Conditions -  °F | °C
As of 3:35 PM on Saturday 20 Dec 2014 (Local Time) from KDTL Reporting Station
Haze Haze  
Wind Chill: 21°   Ceiling: 400
Heat Index: 30°   Visibility: 3mi
Dew Point: 30°   Wind: 12mph
Humidity: 100%   Direction: 170°S
Pressure: 29.97"   Gusts: NA
Location:  46.73°N, 95.7°W
Report Text: KDTL 202135Z AUTO 17010KT 3SM BR OVC004 M01/M01 A2997 RMK AO2
Loading
Personal Weather Stations






























Interactive Weather Map New forecast layout! Learn more

10-Day Weather Forecast

Advertisements
Track Severe Weather on mobile